sensor_id;sensor_type;location;lat;lon;timestamp;P1;durP1;ratioP1;P2;durP2;ratioP2
48042;SDS011;33988;47.992;8.820;2022-10-16T00:01:42;2.83;;;1.95;;
48042;SDS011;33988;47.992;8.820;2022-10-16T00:04:09;8.02;;;2.85;;
48042;SDS011;33988;47.992;8.820;2022-10-16T00:06:36;5.03;;;3.03;;
48042;SDS011;33988;47.992;8.820;2022-10-16T00:09:03;6.47;;;2.60;;
48042;SDS011;33988;47.992;8.820;2022-10-16T00:11:38;3.92;;;2.70;;
48042;SDS011;33988;47.992;8.820;2022-10-16T00:14:08;3.80;;;2.33;;
48042;SDS011;33988;47.992;8.820;2022-10-16T00:16:40;5.35;;;2.58;;
48042;SDS011;33988;47.992;8.820;2022-10-16T00:19:07;9.10;;;2.58;;
48042;SDS011;33988;47.992;8.820;2022-10-16T00:24:09;4.80;;;2.22;;
48042;SDS011;33988;47.992;8.820;2022-10-16T00:26:37;3.10;;;2.17;;
48042;SDS011;33988;47.992;8.820;2022-10-16T00:29:07;8.50;;;2.35;;
48042;SDS011;33988;47.992;8.820;2022-10-16T00:31:36;4.88;;;2.45;;
48042;SDS011;33988;47.992;8.820;2022-10-16T00:34:10;3.35;;;2.10;;
48042;SDS011;33988;47.992;8.820;2022-10-16T00:36:37;2.92;;;2.10;;
48042;SDS011;33988;47.992;8.820;2022-10-16T00:39:04;3.85;;;2.58;;
48042;SDS011;33988;47.992;8.820;2022-10-16T00:41:34;2.45;;;2.10;;
48042;SDS011;33988;47.992;8.820;2022-10-16T00:44:02;4.55;;;2.50;;
48042;SDS011;33988;47.992;8.820;2022-10-16T00:47:13;3.42;;;2.05;;
48042;SDS011;33988;47.992;8.820;2022-10-16T00:50:04;4.28;;;2.40;;
48042;SDS011;33988;47.992;8.820;2022-10-16T00:52:45;3.15;;;2.53;;
48042;SDS011;33988;47.992;8.820;2022-10-16T00:55:17;2.65;;;2.10;;
48042;SDS011;33988;47.992;8.820;2022-10-16T00:57:47;2.50;;;1.77;;
48042;SDS011;33988;47.992;8.820;2022-10-16T01:00:17;3.88;;;2.00;;
48042;SDS011;33988;47.992;8.820;2022-10-16T01:02:56;2.80;;;1.77;;
48042;SDS011;33988;47.992;8.820;2022-10-16T01:05:31;1.60;;;1.45;;
48042;SDS011;33988;47.992;8.820;2022-10-16T01:08:12;2.28;;;1.60;;
48042;SDS011;33988;47.992;8.820;2022-10-16T01:11:12;3.72;;;1.73;;
48042;SDS011;33988;47.992;8.820;2022-10-16T01:13:46;6.40;;;2.00;;
48042;SDS011;33988;47.992;8.820;2022-10-16T01:16:29;3.35;;;1.80;;
48042;SDS011;33988;47.992;8.820;2022-10-16T01:27:25;4.10;;;2.22;;
48042;SDS011;33988;47.992;8.820;2022-10-16T01:30:10;3.22;;;2.15;;
48042;SDS011;33988;47.992;8.820;2022-10-16T01:32:50;3.15;;;2.28;;
48042;SDS011;33988;47.992;8.820;2022-10-16T01:35:29;2.55;;;2.00;;
48042;SDS011;33988;47.992;8.820;2022-10-16T01:40:51;2.10;;;1.90;;
48042;SDS011;33988;47.992;8.820;2022-10-16T01:43:28;2.45;;;1.98;;
48042;SDS011;33988;47.992;8.820;2022-10-16T01:46:09;2.17;;;1.67;;
48042;SDS011;33988;47.992;8.820;2022-10-16T01:48:42;3.92;;;1.77;;
48042;SDS011;33988;47.992;8.820;2022-10-16T01:51:10;2.00;;;1.80;;
48042;SDS011;33988;47.992;8.820;2022-10-16T01:53:41;2.38;;;1.90;;
48042;SDS011;33988;47.992;8.820;2022-10-16T01:56:17;2.20;;;1.80;;
48042;SDS011;33988;47.992;8.820;2022-10-16T01:58:52;2.50;;;1.85;;
48042;SDS011;33988;47.992;8.820;2022-10-16T02:01:24;2.60;;;2.30;;
48042;SDS011;33988;47.992;8.820;2022-10-16T02:03:57;2.55;;;1.60;;
48042;SDS011;33988;47.992;8.820;2022-10-16T02:06:29;2.20;;;1.90;;
48042;SDS011;33988;47.992;8.820;2022-10-16T02:09:00;2.08;;;1.75;;
48042;SDS011;33988;47.992;8.820;2022-10-16T02:11:27;2.05;;;1.73;;
48042;SDS011;33988;47.992;8.820;2022-10-16T02:14:05;2.05;;;1.85;;
48042;SDS011;33988;47.992;8.820;2022-10-16T02:16:34;2.45;;;1.63;;
48042;SDS011;33988;47.992;8.820;2022-10-16T02:19:14;2.28;;;1.85;;
48042;SDS011;33988;47.992;8.820;2022-10-16T02:27:06;3.30;;;1.48;;
48042;SDS011;33988;47.992;8.820;2022-10-16T02:32:51;1.88;;;1.40;;
48042;SDS011;33988;47.992;8.820;2022-10-16T02:35:20;2.22;;;1.35;;
48042;SDS011;33988;47.992;8.820;2022-10-16T02:37:48;2.03;;;1.60;;
48042;SDS011;33988;47.992;8.820;2022-10-16T02:40:17;3.85;;;1.80;;
48042;SDS011;33988;47.992;8.820;2022-10-16T02:42:51;1.80;;;1.60;;
48042;SDS011;33988;47.992;8.820;2022-10-16T02:45:19;1.83;;;1.63;;
48042;SDS011;33988;47.992;8.820;2022-10-16T02:47:49;1.98;;;1.40;;
48042;SDS011;33988;47.992;8.820;2022-10-16T02:50:18;1.75;;;1.50;;
48042;SDS011;33988;47.992;8.820;2022-10-16T02:52:48;1.63;;;1.42;;
48042;SDS011;33988;47.992;8.820;2022-10-16T02:55:17;1.83;;;1.52;;
48042;SDS011;33988;47.992;8.820;2022-10-16T02:57:47;1.40;;;1.30;;
48042;SDS011;33988;47.992;8.820;2022-10-16T03:00:16;1.40;;;1.30;;
48042;SDS011;33988;47.992;8.820;2022-10-16T03:02:46;1.10;;;1.05;;
48042;SDS011;33988;47.992;8.820;2022-10-16T03:05:16;2.03;;;1.30;;
48042;SDS011;33988;47.992;8.820;2022-10-16T03:07:52;1.50;;;1.40;;
48042;SDS011;33988;47.992;8.820;2022-10-16T03:10:21;1.20;;;1.10;;
48042;SDS011;33988;47.992;8.820;2022-10-16T03:12:51;1.38;;;1.27;;
48042;SDS011;33988;47.992;8.820;2022-10-16T03:15:18;1.42;;;1.33;;
48042;SDS011;33988;47.992;8.820;2022-10-16T03:17:48;3.35;;;1.40;;
48042;SDS011;33988;47.992;8.820;2022-10-16T03:20:15;2.08;;;1.50;;
48042;SDS011;33988;47.992;8.820;2022-10-16T03:22:42;1.67;;;1.33;;
48042;SDS011;33988;47.992;8.820;2022-10-16T03:25:11;3.45;;;1.60;;
48042;SDS011;33988;47.992;8.820;2022-10-16T03:27:38;4.93;;;1.63;;
48042;SDS011;33988;47.992;8.820;2022-10-16T03:30:05;2.72;;;1.70;;
48042;SDS011;33988;47.992;8.820;2022-10-16T03:32:33;2.05;;;1.75;;
48042;SDS011;33988;47.992;8.820;2022-10-16T03:35:00;3.28;;;2.03;;
48042;SDS011;33988;47.992;8.820;2022-10-16T03:37:28;4.53;;;2.10;;
48042;SDS011;33988;47.992;8.820;2022-10-16T03:39:55;2.88;;;2.03;;
48042;SDS011;33988;47.992;8.820;2022-10-16T03:42:22;3.47;;;2.22;;
48042;SDS011;33988;47.992;8.820;2022-10-16T03:44:51;2.70;;;1.88;;
48042;SDS011;33988;47.992;8.820;2022-10-16T03:47:18;2.00;;;1.80;;
48042;SDS011;33988;47.992;8.820;2022-10-16T03:49:48;1.80;;;1.52;;
48042;SDS011;33988;47.992;8.820;2022-10-16T03:52:15;1.88;;;1.75;;
48042;SDS011;33988;47.992;8.820;2022-10-16T03:54:47;2.00;;;1.77;;
48042;SDS011;33988;47.992;8.820;2022-10-16T03:57:14;2.30;;;2.10;;
48042;SDS011;33988;47.992;8.820;2022-10-16T03:59:41;2.40;;;2.20;;
48042;SDS011;33988;47.992;8.820;2022-10-16T04:02:11;2.33;;;2.13;;
48042;SDS011;33988;47.992;8.820;2022-10-16T04:04:38;2.17;;;1.98;;
48042;SDS011;33988;47.992;8.820;2022-10-16T04:07:07;5.80;;;2.10;;
48042;SDS011;33988;47.992;8.820;2022-10-16T04:09:36;3.78;;;1.63;;
48042;SDS011;33988;47.992;8.820;2022-10-16T04:12:06;2.30;;;1.90;;
48042;SDS011;33988;47.992;8.820;2022-10-16T04:14:35;2.53;;;1.85;;
48042;SDS011;33988;47.992;8.820;2022-10-16T04:17:02;1.60;;;1.50;;
48042;SDS011;33988;47.992;8.820;2022-10-16T04:19:29;2.17;;;1.70;;
48042;SDS011;33988;47.992;8.820;2022-10-16T04:21:56;2.95;;;1.70;;
48042;SDS011;33988;47.992;8.820;2022-10-16T04:24:22;3.33;;;2.15;;
48042;SDS011;33988;47.992;8.820;2022-10-16T04:26:49;3.65;;;2.10;;
48042;SDS011;33988;47.992;8.820;2022-10-16T04:29:16;2.95;;;2.30;;
48042;SDS011;33988;47.992;8.820;2022-10-16T04:31:46;2.20;;;1.83;;
48042;SDS011;33988;47.992;8.820;2022-10-16T04:34:13;2.10;;;1.52;;
48042;SDS011;33988;47.992;8.820;2022-10-16T04:36:40;2.70;;;1.80;;
48042;SDS011;33988;47.992;8.820;2022-10-16T04:39:09;4.82;;;1.98;;
48042;SDS011;33988;47.992;8.820;2022-10-16T04:41:36;1.77;;;1.48;;
48042;SDS011;33988;47.992;8.820;2022-10-16T04:44:03;1.92;;;1.73;;
48042;SDS011;33988;47.992;8.820;2022-10-16T04:46:34;3.65;;;1.98;;
48042;SDS011;33988;47.992;8.820;2022-10-16T04:49:04;3.55;;;1.90;;
48042;SDS011;33988;47.992;8.820;2022-10-16T04:51:31;2.83;;;1.80;;
48042;SDS011;33988;47.992;8.820;2022-10-16T04:54:03;3.35;;;2.30;;
48042;SDS011;33988;47.992;8.820;2022-10-16T04:56:30;1.90;;;1.65;;
48042;SDS011;33988;47.992;8.820;2022-10-16T04:58:57;1.65;;;1.55;;
48042;SDS011;33988;47.992;8.820;2022-10-16T05:01:26;2.00;;;1.80;;
48042;SDS011;33988;47.992;8.820;2022-10-16T05:03:53;3.70;;;1.80;;
48042;SDS011;33988;47.992;8.820;2022-10-16T05:06:20;1.77;;;1.65;;
48042;SDS011;33988;47.992;8.820;2022-10-16T05:08:48;3.05;;;1.60;;
48042;SDS011;33988;47.992;8.820;2022-10-16T05:11:17;1.70;;;1.55;;
48042;SDS011;33988;47.992;8.820;2022-10-16T05:13:44;3.00;;;1.85;;
48042;SDS011;33988;47.992;8.820;2022-10-16T05:16:11;4.78;;;1.60;;
48042;SDS011;33988;47.992;8.820;2022-10-16T05:18:38;1.90;;;1.80;;
48042;SDS011;33988;47.992;8.820;2022-10-16T05:21:05;1.80;;;1.70;;
48042;SDS011;33988;47.992;8.820;2022-10-16T05:23:32;2.05;;;1.80;;
48042;SDS011;33988;47.992;8.820;2022-10-16T05:25:59;1.92;;;1.58;;
48042;SDS011;33988;47.992;8.820;2022-10-16T05:28:27;2.20;;;2.00;;
48042;SDS011;33988;47.992;8.820;2022-10-16T05:30:58;2.53;;;1.98;;
48042;SDS011;33988;47.992;8.820;2022-10-16T05:33:25;2.10;;;1.80;;
48042;SDS011;33988;47.992;8.820;2022-10-16T05:36:00;1.63;;;1.52;;
48042;SDS011;33988;47.992;8.820;2022-10-16T05:38:29;2.13;;;1.83;;
48042;SDS011;33988;47.992;8.820;2022-10-16T05:40:58;2.47;;;1.73;;
48042;SDS011;33988;47.992;8.820;2022-10-16T05:43:26;2.03;;;1.83;;
48042;SDS011;33988;47.992;8.820;2022-10-16T05:45:58;3.45;;;2.20;;
48042;SDS011;33988;47.992;8.820;2022-10-16T05:48:31;3.83;;;2.45;;
48042;SDS011;33988;47.992;8.820;2022-10-16T05:51:04;4.32;;;2.45;;
48042;SDS011;33988;47.992;8.820;2022-10-16T05:53:36;2.90;;;2.28;;
48042;SDS011;33988;47.992;8.820;2022-10-16T05:56:05;4.13;;;2.45;;
48042;SDS011;33988;47.992;8.820;2022-10-16T05:58:36;2.78;;;2.58;;
48042;SDS011;33988;47.992;8.820;2022-10-16T06:01:07;2.67;;;2.40;;
48042;SDS011;33988;47.992;8.820;2022-10-16T06:03:43;1.98;;;1.88;;
48042;SDS011;33988;47.992;8.820;2022-10-16T06:06:15;1.50;;;1.40;;
48042;SDS011;33988;47.992;8.820;2022-10-16T06:08:47;1.70;;;1.60;;
48042;SDS011;33988;47.992;8.820;2022-10-16T06:11:21;1.67;;;1.58;;
48042;SDS011;33988;47.992;8.820;2022-10-16T06:13:55;2.08;;;1.88;;
48042;SDS011;33988;47.992;8.820;2022-10-16T06:16:33;1.30;;;1.20;;
48042;SDS011;33988;47.992;8.820;2022-10-16T06:19:02;1.48;;;1.38;;
48042;SDS011;33988;47.992;8.820;2022-10-16T06:21:35;7.63;;;1.60;;
48042;SDS011;33988;47.992;8.820;2022-10-16T06:24:04;3.85;;;1.80;;
48042;SDS011;33988;47.992;8.820;2022-10-16T06:26:31;2.17;;;1.98;;
48042;SDS011;33988;47.992;8.820;2022-10-16T06:29:01;2.70;;;2.20;;
48042;SDS011;33988;47.992;8.820;2022-10-16T06:31:28;2.50;;;2.00;;
48042;SDS011;33988;47.992;8.820;2022-10-16T06:33:59;3.28;;;2.20;;
48042;SDS011;33988;47.992;8.820;2022-10-16T06:36:30;3.17;;;2.47;;
48042;SDS011;33988;47.992;8.820;2022-10-16T06:38:59;4.47;;;3.50;;
48042;SDS011;33988;47.992;8.820;2022-10-16T06:41:26;3.20;;;2.83;;
48042;SDS011;33988;47.992;8.820;2022-10-16T06:43:53;4.47;;;2.50;;
48042;SDS011;33988;47.992;8.820;2022-10-16T06:46:25;2.75;;;2.45;;
48042;SDS011;33988;47.992;8.820;2022-10-16T06:48:53;3.22;;;2.53;;
48042;SDS011;33988;47.992;8.820;2022-10-16T06:51:23;3.60;;;2.88;;
48042;SDS011;33988;47.992;8.820;2022-10-16T06:53:54;4.20;;;3.50;;
48042;SDS011;33988;47.992;8.820;2022-10-16T06:56:30;3.40;;;2.80;;
48042;SDS011;33988;47.992;8.820;2022-10-16T06:59:01;4.05;;;2.00;;
48042;SDS011;33988;47.992;8.820;2022-10-16T07:01:28;4.25;;;2.80;;
48042;SDS011;33988;47.992;8.820;2022-10-16T07:03:58;4.30;;;2.63;;
48042;SDS011;33988;47.992;8.820;2022-10-16T07:06:30;2.95;;;2.15;;
48042;SDS011;33988;47.992;8.820;2022-10-16T07:09:00;3.63;;;2.50;;
48042;SDS011;33988;47.992;8.820;2022-10-16T07:11:30;3.15;;;2.67;;
48042;SDS011;33988;47.992;8.820;2022-10-16T07:13:58;3.45;;;3.03;;
48042;SDS011;33988;47.992;8.820;2022-10-16T07:16:26;3.28;;;2.42;;
48042;SDS011;33988;47.992;8.820;2022-10-16T07:18:56;3.40;;;2.20;;
48042;SDS011;33988;47.992;8.820;2022-10-16T07:21:29;3.13;;;2.10;;
48042;SDS011;33988;47.992;8.820;2022-10-16T07:24:02;2.10;;;1.70;;
48042;SDS011;33988;47.992;8.820;2022-10-16T07:26:35;2.17;;;1.98;;
48042;SDS011;33988;47.992;8.820;2022-10-16T07:29:14;2.25;;;2.05;;
48042;SDS011;33988;47.992;8.820;2022-10-16T07:31:45;3.30;;;2.03;;
48042;SDS011;33988;47.992;8.820;2022-10-16T07:34:13;2.17;;;1.77;;
48042;SDS011;33988;47.992;8.820;2022-10-16T07:39:14;2.58;;;2.03;;
48042;SDS011;33988;47.992;8.820;2022-10-16T07:41:44;3.38;;;2.70;;
48042;SDS011;33988;47.992;8.820;2022-10-16T07:44:11;3.78;;;3.30;;
48042;SDS011;33988;47.992;8.820;2022-10-16T07:46:38;3.17;;;2.88;;
48042;SDS011;33988;47.992;8.820;2022-10-16T07:49:08;2.80;;;2.20;;
48042;SDS011;33988;47.992;8.820;2022-10-16T07:51:37;3.22;;;2.60;;
48042;SDS011;33988;47.992;8.820;2022-10-16T07:54:08;3.60;;;2.83;;
48042;SDS011;33988;47.992;8.820;2022-10-16T07:56:38;3.22;;;2.40;;
48042;SDS011;33988;47.992;8.820;2022-10-16T07:59:09;2.50;;;2.20;;
48042;SDS011;33988;47.992;8.820;2022-10-16T08:01:38;2.00;;;1.90;;
48042;SDS011;33988;47.992;8.820;2022-10-16T08:04:05;2.95;;;2.47;;
48042;SDS011;33988;47.992;8.820;2022-10-16T08:06:34;4.68;;;2.10;;
48042;SDS011;33988;47.992;8.820;2022-10-16T08:09:06;1.70;;;1.60;;
48042;SDS011;33988;47.992;8.820;2022-10-16T08:11:34;4.15;;;1.90;;
48042;SDS011;33988;47.992;8.820;2022-10-16T08:14:01;1.70;;;1.60;;
48042;SDS011;33988;47.992;8.820;2022-10-16T08:16:30;1.83;;;1.58;;
48042;SDS011;33988;47.992;8.820;2022-10-16T08:18:59;1.60;;;1.40;;
48042;SDS011;33988;47.992;8.820;2022-10-16T08:21:28;1.73;;;1.48;;
48042;SDS011;33988;47.992;8.820;2022-10-16T08:23:55;3.40;;;1.65;;
48042;SDS011;33988;47.992;8.820;2022-10-16T08:26:25;2.03;;;1.83;;
48042;SDS011;33988;47.992;8.820;2022-10-16T08:28:53;1.83;;;1.60;;
48042;SDS011;33988;47.992;8.820;2022-10-16T08:31:21;2.20;;;1.70;;
48042;SDS011;33988;47.992;8.820;2022-10-16T08:33:49;1.65;;;1.48;;
48042;SDS011;33988;47.992;8.820;2022-10-16T08:36:19;3.53;;;1.60;;
48042;SDS011;33988;47.992;8.820;2022-10-16T08:38:49;1.80;;;1.70;;
48042;SDS011;33988;47.992;8.820;2022-10-16T08:44:27;1.42;;;1.33;;
48042;SDS011;33988;47.992;8.820;2022-10-16T08:47:43;2.30;;;1.80;;
48042;SDS011;33988;47.992;8.820;2022-10-16T08:50:36;1.52;;;1.30;;
48042;SDS011;33988;47.992;8.820;2022-10-16T08:53:06;1.43;;;1.33;;
48042;SDS011;33988;47.992;8.820;2022-10-16T08:55:42;1.38;;;1.20;;
48042;SDS011;33988;47.992;8.820;2022-10-16T08:58:16;1.55;;;1.42;;
48042;SDS011;33988;47.992;8.820;2022-10-16T09:00:50;2.10;;;1.38;;
48042;SDS011;33988;47.992;8.820;2022-10-16T09:03:27;1.83;;;1.45;;
48042;SDS011;33988;47.992;8.820;2022-10-16T09:25:34;1.65;;;1.55;;
48042;SDS011;33988;47.992;8.820;2022-10-16T09:28:01;2.30;;;1.55;;
48042;SDS011;33988;47.992;8.820;2022-10-16T09:30:31;3.45;;;1.80;;
48042;SDS011;33988;47.992;8.820;2022-10-16T09:33:00;2.17;;;1.40;;
48042;SDS011;33988;47.992;8.820;2022-10-16T09:35:33;1.05;;;1.05;;
48042;SDS011;33988;47.992;8.820;2022-10-16T09:38:03;1.73;;;1.48;;
48042;SDS011;33988;47.992;8.820;2022-10-16T09:40:32;1.48;;;1.30;;
48042;SDS011;33988;47.992;8.820;2022-10-16T09:45:56;1.40;;;1.30;;
48042;SDS011;33988;47.992;8.820;2022-10-16T09:48:33;1.23;;;1.10;;
48042;SDS011;33988;47.992;8.820;2022-10-16T09:51:26;1.25;;;1.15;;
48042;SDS011;33988;47.992;8.820;2022-10-16T09:53:59;2.03;;;1.42;;
48042;SDS011;33988;47.992;8.820;2022-10-16T09:56:37;2.08;;;1.55;;
48042;SDS011;33988;47.992;8.820;2022-10-16T09:59:14;1.40;;;1.20;;
48042;SDS011;33988;47.992;8.820;2022-10-16T10:01:50;1.80;;;1.30;;
48042;SDS011;33988;47.992;8.820;2022-10-16T10:04:20;1.40;;;1.30;;
48042;SDS011;33988;47.992;8.820;2022-10-16T10:06:55;1.50;;;1.40;;
48042;SDS011;33988;47.992;8.820;2022-10-16T10:12:03;3.53;;;2.10;;
48042;SDS011;33988;47.992;8.820;2022-10-16T10:14:43;2.25;;;1.77;;
48042;SDS011;33988;47.992;8.820;2022-10-16T10:17:18;3.30;;;1.67;;
48042;SDS011;33988;47.992;8.820;2022-10-16T10:22:47;2.20;;;1.42;;
48042;SDS011;33988;47.992;8.820;2022-10-16T10:31:08;3.47;;;1.40;;
48042;SDS011;33988;47.992;8.820;2022-10-16T10:34:01;1.38;;;1.23;;
48042;SDS011;33988;47.992;8.820;2022-10-16T10:37:20;1.65;;;1.55;;
48042;SDS011;33988;47.992;8.820;2022-10-16T10:40:22;2.33;;;1.45;;
48042;SDS011;33988;47.992;8.820;2022-10-16T10:45:43;1.80;;;1.40;;
48042;SDS011;33988;47.992;8.820;2022-10-16T10:51:09;1.20;;;1.10;;
48042;SDS011;33988;47.992;8.820;2022-10-16T10:53:53;1.38;;;1.17;;
48042;SDS011;33988;47.992;8.820;2022-10-16T10:56:58;1.20;;;1.10;;
48042;SDS011;33988;47.992;8.820;2022-10-16T11:02:31;0.82;;;0.82;;
48042;SDS011;33988;47.992;8.820;2022-10-16T11:08:04;1.02;;;0.98;;
48042;SDS011;33988;47.992;8.820;2022-10-16T11:15:55;1.05;;;0.90;;
48042;SDS011;33988;47.992;8.820;2022-10-16T11:21:12;1.17;;;1.08;;
48042;SDS011;33988;47.992;8.820;2022-10-16T11:23:51;1.42;;;1.30;;
48042;SDS011;33988;47.992;8.820;2022-10-16T11:26:43;1.52;;;1.20;;
48042;SDS011;33988;47.992;8.820;2022-10-16T11:29:18;1.88;;;1.00;;
48042;SDS011;33988;47.992;8.820;2022-10-16T11:31:55;1.15;;;1.05;;
48042;SDS011;33988;47.992;8.820;2022-10-16T11:34:32;1.50;;;0.90;;
48042;SDS011;33988;47.992;8.820;2022-10-16T11:37:14;1.30;;;1.20;;
48042;SDS011;33988;47.992;8.820;2022-10-16T11:39:46;1.00;;;0.90;;
48042;SDS011;33988;47.992;8.820;2022-10-16T11:42:30;1.10;;;1.00;;
48042;SDS011;33988;47.992;8.820;2022-10-16T11:47:48;1.33;;;0.88;;
48042;SDS011;33988;47.992;8.820;2022-10-16T11:50:33;3.85;;;1.17;;
48042;SDS011;33988;47.992;8.820;2022-10-16T11:53:46;4.40;;;1.23;;
48042;SDS011;33988;47.992;8.820;2022-10-16T11:56:22;1.20;;;1.00;;
48042;SDS011;33988;47.992;8.820;2022-10-16T11:58:57;1.52;;;0.90;;
48042;SDS011;33988;47.992;8.820;2022-10-16T12:07:12;1.75;;;1.08;;
48042;SDS011;33988;47.992;8.820;2022-10-16T12:09:54;4.57;;;3.03;;
48042;SDS011;33988;47.992;8.820;2022-10-16T12:12:43;2.85;;;2.00;;
48042;SDS011;33988;47.992;8.820;2022-10-16T12:18:24;2.75;;;0.95;;
48042;SDS011;33988;47.992;8.820;2022-10-16T12:20:55;1.00;;;0.90;;
48042;SDS011;33988;47.992;8.820;2022-10-16T12:23:30;1.00;;;0.88;;
48042;SDS011;33988;47.992;8.820;2022-10-16T12:25:59;3.20;;;1.58;;
48042;SDS011;33988;47.992;8.820;2022-10-16T12:28:30;1.77;;;1.13;;
48042;SDS011;33988;47.992;8.820;2022-10-16T12:31:01;5.47;;;1.45;;
48042;SDS011;33988;47.992;8.820;2022-10-16T12:33:35;3.17;;;1.48;;
48042;SDS011;33988;47.992;8.820;2022-10-16T12:38:50;1.70;;;0.98;;
48042;SDS011;33988;47.992;8.820;2022-10-16T12:44:20;1.65;;;1.00;;
48042;SDS011;33988;47.992;8.820;2022-10-16T12:46:53;1.30;;;0.80;;
48042;SDS011;33988;47.992;8.820;2022-10-16T12:51:55;2.22;;;1.38;;
48042;SDS011;33988;47.992;8.820;2022-10-16T13:14:35;2.00;;;1.27;;
48042;SDS011;33988;47.992;8.820;2022-10-16T13:29:06;1.33;;;0.82;;
48042;SDS011;33988;47.992;8.820;2022-10-16T13:31:36;0.82;;;0.70;;
48042;SDS011;33988;47.992;8.820;2022-10-16T13:34:05;0.68;;;0.68;;
48042;SDS011;33988;47.992;8.820;2022-10-16T13:36:52;0.68;;;0.63;;
48042;SDS011;33988;47.992;8.820;2022-10-16T13:39:29;1.48;;;1.08;;
48042;SDS011;33988;47.992;8.820;2022-10-16T13:44:53;0.93;;;0.77;;
48042;SDS011;33988;47.992;8.820;2022-10-16T13:47:26;0.80;;;0.80;;
48042;SDS011;33988;47.992;8.820;2022-10-16T13:50:01;1.00;;;0.90;;
48042;SDS011;33988;47.992;8.820;2022-10-16T13:52:40;0.90;;;0.90;;
48042;SDS011;33988;47.992;8.820;2022-10-16T13:55:15;1.80;;;0.80;;
48042;SDS011;33988;47.992;8.820;2022-10-16T13:57:44;4.50;;;0.90;;
48042;SDS011;33988;47.992;8.820;2022-10-16T14:00:24;0.85;;;0.82;;
48042;SDS011;33988;47.992;8.820;2022-10-16T14:03:02;1.02;;;0.80;;
48042;SDS011;33988;47.992;8.820;2022-10-16T14:05:42;1.75;;;1.45;;
48042;SDS011;33988;47.992;8.820;2022-10-16T14:08:16;2.22;;;0.80;;
48042;SDS011;33988;47.992;8.820;2022-10-16T14:10:47;1.52;;;0.95;;
48042;SDS011;33988;47.992;8.820;2022-10-16T14:13:28;1.58;;;0.95;;
48042;SDS011;33988;47.992;8.820;2022-10-16T14:16:07;1.35;;;0.80;;
48042;SDS011;33988;47.992;8.820;2022-10-16T14:18:37;2.55;;;1.00;;
48042;SDS011;33988;47.992;8.820;2022-10-16T14:21:07;1.10;;;1.00;;
48042;SDS011;33988;47.992;8.820;2022-10-16T14:23:40;2.10;;;1.30;;
48042;SDS011;33988;47.992;8.820;2022-10-16T14:28:36;0.93;;;0.90;;
48042;SDS011;33988;47.992;8.820;2022-10-16T14:33:45;2.25;;;1.20;;
48042;SDS011;33988;47.992;8.820;2022-10-16T14:36:15;1.70;;;1.20;;
48042;SDS011;33988;47.992;8.820;2022-10-16T14:39:03;1.23;;;1.13;;
48042;SDS011;33988;47.992;8.820;2022-10-16T14:41:33;1.70;;;1.25;;
48042;SDS011;33988;47.992;8.820;2022-10-16T14:44:12;1.92;;;1.20;;
48042;SDS011;33988;47.992;8.820;2022-10-16T14:46:46;1.23;;;1.13;;
48042;SDS011;33988;47.992;8.820;2022-10-16T14:49:18;1.63;;;0.90;;
48042;SDS011;33988;47.992;8.820;2022-10-16T14:51:47;1.17;;;1.05;;
48042;SDS011;33988;47.992;8.820;2022-10-16T14:54:15;3.17;;;1.15;;
48042;SDS011;33988;47.992;8.820;2022-10-16T14:56:46;1.87;;;1.07;;
48042;SDS011;33988;47.992;8.820;2022-10-16T14:59:27;3.80;;;1.83;;
48042;SDS011;33988;47.992;8.820;2022-10-16T15:02:06;4.28;;;1.33;;
48042;SDS011;33988;47.992;8.820;2022-10-16T15:04:47;1.30;;;1.10;;
48042;SDS011;33988;47.992;8.820;2022-10-16T15:07:17;1.77;;;1.33;;
48042;SDS011;33988;47.992;8.820;2022-10-16T15:09:46;1.70;;;1.00;;
48042;SDS011;33988;47.992;8.820;2022-10-16T15:12:16;1.52;;;1.15;;
48042;SDS011;33988;47.992;8.820;2022-10-16T15:14:44;5.45;;;1.38;;
48042;SDS011;33988;47.992;8.820;2022-10-16T15:17:11;1.30;;;1.10;;
48042;SDS011;33988;47.992;8.820;2022-10-16T15:19:40;1.15;;;1.05;;
48042;SDS011;33988;47.992;8.820;2022-10-16T15:22:11;1.45;;;1.10;;
48042;SDS011;33988;47.992;8.820;2022-10-16T15:24:38;0.77;;;0.77;;
48042;SDS011;33988;47.992;8.820;2022-10-16T15:27:07;2.67;;;1.05;;
48042;SDS011;33988;47.992;8.820;2022-10-16T15:29:35;1.48;;;1.15;;
48042;SDS011;33988;47.992;8.820;2022-10-16T15:32:04;2.92;;;1.13;;
48042;SDS011;33988;47.992;8.820;2022-10-16T15:34:31;2.47;;;0.90;;
48042;SDS011;33988;47.992;8.820;2022-10-16T15:37:04;5.95;;;2.05;;
48042;SDS011;33988;47.992;8.820;2022-10-16T15:39:34;1.00;;;0.90;;
48042;SDS011;33988;47.992;8.820;2022-10-16T15:42:06;1.20;;;1.10;;
48042;SDS011;33988;47.992;8.820;2022-10-16T15:44:33;1.25;;;0.93;;
48042;SDS011;33988;47.992;8.820;2022-10-16T15:47:02;0.98;;;0.90;;
48042;SDS011;33988;47.992;8.820;2022-10-16T15:49:32;0.90;;;0.90;;
48042;SDS011;33988;47.992;8.820;2022-10-16T15:52:01;2.08;;;1.25;;
48042;SDS011;33988;47.992;8.820;2022-10-16T15:54:29;2.13;;;1.70;;
48042;SDS011;33988;47.992;8.820;2022-10-16T15:56:56;1.90;;;1.50;;
48042;SDS011;33988;47.992;8.820;2022-10-16T15:59:23;2.22;;;1.42;;
48042;SDS011;33988;47.992;8.820;2022-10-16T16:01:50;1.98;;;1.52;;
48042;SDS011;33988;47.992;8.820;2022-10-16T16:04:21;1.20;;;1.10;;
48042;SDS011;33988;47.992;8.820;2022-10-16T16:07:10;1.67;;;1.48;;
48042;SDS011;33988;47.992;8.820;2022-10-16T16:09:37;4.10;;;1.77;;
48042;SDS011;33988;47.992;8.820;2022-10-16T16:12:04;1.80;;;1.48;;
48042;SDS011;33988;47.992;8.820;2022-10-16T16:14:31;4.25;;;1.60;;
48042;SDS011;33988;47.992;8.820;2022-10-16T16:16:58;1.33;;;1.02;;
48042;SDS011;33988;47.992;8.820;2022-10-16T16:19:25;2.97;;;1.35;;
48042;SDS011;33988;47.992;8.820;2022-10-16T16:21:53;1.85;;;1.23;;
48042;SDS011;33988;47.992;8.820;2022-10-16T16:24:19;1.27;;;1.17;;
48042;SDS011;33988;47.992;8.820;2022-10-16T16:26:46;1.60;;;1.27;;
48042;SDS011;33988;47.992;8.820;2022-10-16T16:29:15;2.00;;;1.85;;
48042;SDS011;33988;47.992;8.820;2022-10-16T16:31:42;2.35;;;1.95;;
48042;SDS011;33988;47.992;8.820;2022-10-16T16:34:10;2.92;;;2.10;;
48042;SDS011;33988;47.992;8.820;2022-10-16T16:36:40;3.60;;;1.65;;
48042;SDS011;33988;47.992;8.820;2022-10-16T16:39:07;2.53;;;1.85;;
48042;SDS011;33988;47.992;8.820;2022-10-16T16:41:34;3.35;;;2.30;;
48042;SDS011;33988;47.992;8.820;2022-10-16T16:44:06;4.53;;;2.60;;
48042;SDS011;33988;47.992;8.820;2022-10-16T16:46:35;8.57;;;5.05;;
48042;SDS011;33988;47.992;8.820;2022-10-16T16:49:06;7.32;;;5.25;;
48042;SDS011;33988;47.992;8.820;2022-10-16T16:51:33;5.50;;;4.38;;
48042;SDS011;33988;47.992;8.820;2022-10-16T16:54:05;9.43;;;5.13;;
48042;SDS011;33988;47.992;8.820;2022-10-16T16:56:34;7.25;;;4.63;;
48042;SDS011;33988;47.992;8.820;2022-10-16T16:59:01;4.68;;;3.50;;
48042;SDS011;33988;47.992;8.820;2022-10-16T17:01:33;9.18;;;4.10;;
48042;SDS011;33988;47.992;8.820;2022-10-16T17:04:00;5.40;;;4.28;;
48042;SDS011;33988;47.992;8.820;2022-10-16T17:06:28;6.85;;;4.07;;
48042;SDS011;33988;47.992;8.820;2022-10-16T17:08:56;4.95;;;3.40;;
48042;SDS011;33988;47.992;8.820;2022-10-16T17:11:25;3.75;;;3.00;;
48042;SDS011;33988;47.992;8.820;2022-10-16T17:13:56;5.22;;;3.40;;
48042;SDS011;33988;47.992;8.820;2022-10-16T17:16:29;5.43;;;2.75;;
48042;SDS011;33988;47.992;8.820;2022-10-16T17:19:01;3.60;;;2.78;;
48042;SDS011;33988;47.992;8.820;2022-10-16T17:21:42;4.50;;;3.33;;
48042;SDS011;33988;47.992;8.820;2022-10-16T17:24:10;5.10;;;3.65;;
48042;SDS011;33988;47.992;8.820;2022-10-16T17:29:14;3.67;;;2.97;;
48042;SDS011;33988;47.992;8.820;2022-10-16T17:31:44;8.38;;;3.55;;
48042;SDS011;33988;47.992;8.820;2022-10-16T17:34:15;4.15;;;3.28;;
48042;SDS011;33988;47.992;8.820;2022-10-16T17:36:42;4.50;;;3.00;;
48042;SDS011;33988;47.992;8.820;2022-10-16T17:39:13;5.03;;;3.17;;
48042;SDS011;33988;47.992;8.820;2022-10-16T17:41:43;4.93;;;3.00;;